createdAt,value
2019-05-11T00:01:28.755Z,84.21
2019-05-11T00:03:59.198Z,84.23
2019-05-11T00:06:29.638Z,84.67
2019-05-11T00:09:00.134Z,85.00
2019-05-11T00:11:30.579Z,84.35
2019-05-11T00:14:01.020Z,84.39
2019-05-11T00:16:31.544Z,84.60
2019-05-11T00:19:02.298Z,84.39
2019-05-11T00:21:33.140Z,84.13
2019-05-11T00:24:03.640Z,84.35
2019-05-11T00:26:34.483Z,84.56
2019-05-11T00:29:04.916Z,84.66
2019-05-11T00:31:35.744Z,84.73
2019-05-11T00:34:06.556Z,84.27
2019-05-11T00:36:37.002Z,84.98
2019-05-11T00:39:08.507Z,84.63
2019-05-11T00:41:38.957Z,85.34
2019-05-11T00:44:09.688Z,85.23
2019-05-11T00:46:41.350Z,86.06
2019-05-11T00:49:12.251Z,86.14
2019-05-11T00:51:43.073Z,86.28
2019-05-11T00:54:14.779Z,86.55
2019-05-11T00:56:45.232Z,86.40
2019-05-11T00:59:21.932Z,86.97
2019-05-11T01:01:49.189Z,86.90
2019-05-11T01:04:19.960Z,86.82
2019-05-11T01:06:50.429Z,86.78
2019-05-11T01:09:24.726Z,86.96
2019-05-11T01:11:55.166Z,86.56
2019-05-11T01:14:25.616Z,86.33
2019-05-11T01:16:56.481Z,86.30
2019-05-11T01:19:26.921Z,86.01
2019-05-11T01:21:58.051Z,86.44
2019-05-11T01:24:28.716Z,86.77
2019-05-11T01:26:59.155Z,86.88
2019-05-11T01:29:30.363Z,86.27
2019-05-11T01:32:01.203Z,86.41
2019-05-11T01:34:32.449Z,86.28
2019-05-11T01:37:02.959Z,86.67
2019-05-11T01:39:33.449Z,86.24
2019-05-11T01:42:03.894Z,86.07
2019-05-11T01:44:34.679Z,86.21
2019-05-11T01:47:05.522Z,86.14
2019-05-11T01:49:36.259Z,86.09
2019-05-11T01:52:06.731Z,86.15
2019-05-11T01:54:38.283Z,85.72
2019-05-11T01:57:09.398Z,85.44
2019-05-11T01:59:40.791Z,85.25
2019-05-11T02:02:11.693Z,85.42
2019-05-11T02:04:42.143Z,85.47
2019-05-11T02:07:13.283Z,85.12
2019-05-11T02:09:44.260Z,85.14
2019-05-11T02:12:15.586Z,84.87
2019-05-11T02:14:46.123Z,85.11
2019-05-11T02:17:16.603Z,85.38
2019-05-11T02:19:47.046Z,86.04
2019-05-11T02:22:18.482Z,86.23
2019-05-11T02:24:48.966Z,86.32
2019-05-11T02:27:19.794Z,86.15
2019-05-11T02:29:50.230Z,86.21
2019-05-11T02:32:21.150Z,86.49
2019-05-11T02:34:51.975Z,86.37
2019-05-11T02:37:22.410Z,86.78
2019-05-11T02:39:52.898Z,86.19
2019-05-11T02:42:23.342Z,86.65
2019-05-11T02:44:53.768Z,86.52
2019-05-11T02:47:24.252Z,86.39
2019-05-11T02:49:55.106Z,86.54
2019-05-11T02:52:27.282Z,86.58
2019-05-11T02:54:58.672Z,86.41
2019-05-11T02:57:29.422Z,85.70
2019-05-11T03:00:00.158Z,86.07
2019-05-11T03:02:31.017Z,86.33
2019-05-11T03:05:01.452Z,86.23
2019-05-11T03:07:31.896Z,86.26
2019-05-11T03:10:02.685Z,86.08
2019-05-11T03:12:33.511Z,85.92
2019-05-11T03:15:05.142Z,86.17
2019-05-11T03:17:35.630Z,86.14
2019-05-11T03:20:06.830Z,86.07
2019-05-11T03:22:37.610Z,85.90
2019-05-11T03:25:08.095Z,85.68
2019-05-11T03:27:38.534Z,85.45
2019-05-11T03:30:09.647Z,86.05
2019-05-11T03:32:40.455Z,85.72
2019-05-11T03:35:11.199Z,86.03
2019-05-11T03:37:41.625Z,86.62
2019-05-11T03:40:12.449Z,87.25
2019-05-11T03:42:42.901Z,88.09
2019-05-11T03:45:13.557Z,88.36
2019-05-11T03:47:44.043Z,87.27
2019-05-11T03:50:14.676Z,86.29
2019-05-11T03:52:45.314Z,86.26
2019-05-11T03:55:16.373Z,86.17
2019-05-11T03:57:46.816Z,86.25
2019-05-11T04:00:18.491Z,86.17
2019-05-11T04:02:48.978Z,86.50
2019-05-11T04:05:19.872Z,86.17
2019-05-11T04:07:50.724Z,86.79
2019-05-11T04:10:24.933Z,86.59
2019-05-11T04:12:53.338Z,87.07
2019-05-11T04:15:24.149Z,87.69
2019-05-11T04:17:55.236Z,86.85
2019-05-11T04:20:25.674Z,87.27
2019-05-11T04:22:56.106Z,86.96
2019-05-11T04:25:27.262Z,87.14
2019-05-11T04:27:57.692Z,87.22
2019-05-11T04:30:28.132Z,86.90
2019-05-11T04:32:58.958Z,87.65
2019-05-11T04:35:29.388Z,88.00
2019-05-11T04:38:00.127Z,87.61
2019-05-11T04:40:31.382Z,87.50
2019-05-11T04:43:01.827Z,87.23
2019-05-11T04:45:32.270Z,86.77
2019-05-11T04:48:02.756Z,86.67
2019-05-11T04:50:33.200Z,86.58
2019-05-11T04:53:04.554Z,86.27
2019-05-11T04:55:35.808Z,86.37
2019-05-11T04:58:06.239Z,86.61
2019-05-11T05:00:36.685Z,86.60
2019-05-11T05:03:07.161Z,87.01
2019-05-11T05:05:37.598Z,86.60
2019-05-11T05:08:09.923Z,87.00
2019-05-11T05:10:40.574Z,86.85
2019-05-11T05:13:11.385Z,86.84
2019-05-11T05:15:41.833Z,87.03
2019-05-11T05:18:12.326Z,86.60
2019-05-11T05:20:43.989Z,86.73
2019-05-11T05:23:14.594Z,86.80
2019-05-11T05:25:45.453Z,87.04
2019-05-11T05:28:15.896Z,86.69
2019-05-11T05:30:46.472Z,86.70
2019-05-11T05:33:17.036Z,85.99
2019-05-11T05:35:47.785Z,85.59
2019-05-11T05:38:18.231Z,84.67
2019-05-11T05:40:48.722Z,84.82
2019-05-11T05:43:27.695Z,84.54
2019-05-11T05:45:51.976Z,84.04
2019-05-11T05:48:22.800Z,83.82
2019-05-11T05:50:53.248Z,82.97
2019-05-11T05:53:24.975Z,83.37
2019-05-11T05:55:55.482Z,83.47
2019-05-11T05:58:25.997Z,83.84
2019-05-11T06:00:56.431Z,83.41
2019-05-11T06:03:26.905Z,83.53
2019-05-11T06:05:57.349Z,83.37
2019-05-11T06:08:27.786Z,83.54
2019-05-11T06:10:58.618Z,83.92
2019-05-11T06:13:44.055Z,82.89
2019-05-11T06:16:01.521Z,83.21
2019-05-11T06:18:32.363Z,82.89
2019-05-11T06:21:02.798Z,83.00
2019-05-11T06:23:33.225Z,83.14
2019-05-11T06:26:03.748Z,83.27
2019-05-11T06:28:35.003Z,83.14
2019-05-11T06:31:05.437Z,83.06
2019-05-11T06:33:35.918Z,82.65
2019-05-11T06:36:06.677Z,82.72
2019-05-11T06:38:37.113Z,83.17
2019-05-11T06:41:07.611Z,83.42
2019-05-11T06:43:38.285Z,83.50
2019-05-11T06:46:08.891Z,83.49
2019-05-11T06:48:39.374Z,83.01
2019-05-11T06:51:09.811Z,83.28
2019-05-11T06:53:40.629Z,83.11
2019-05-11T06:56:11.156Z,83.09
2019-05-11T06:58:45.057Z,82.71
2019-05-11T07:01:13.725Z,82.85
2019-05-11T07:03:44.890Z,83.01
2019-05-11T07:06:16.090Z,82.87
2019-05-11T07:08:46.531Z,82.71
2019-05-11T07:11:17.180Z,82.66
2019-05-11T07:13:47.977Z,82.84
2019-05-11T07:16:18.407Z,82.20
2019-05-11T07:18:48.908Z,82.62
2019-05-11T07:21:19.682Z,83.17
2019-05-11T07:23:50.561Z,81.97
2019-05-11T07:26:21.053Z,81.88
2019-05-11T07:28:51.519Z,81.50
2019-05-11T07:31:22.272Z,81.41
2019-05-11T07:33:53.118Z,81.82
2019-05-11T07:36:23.556Z,80.90
2019-05-11T07:38:54.261Z,80.75
2019-05-11T07:41:25.110Z,80.04
2019-05-11T07:43:55.556Z,80.05
2019-05-11T07:46:28.584Z,80.22
2019-05-11T07:48:58.677Z,80.48
2019-05-11T07:51:29.093Z,80.42
2019-05-11T07:53:59.538Z,81.14
2019-05-11T07:56:30.790Z,80.88
2019-05-11T07:59:01.933Z,80.65
2019-05-11T08:01:32.365Z,79.52
2019-05-11T08:04:03.201Z,79.25
2019-05-11T08:06:33.936Z,78.75
2019-05-11T08:09:08.396Z,78.58
2019-05-11T08:11:39.063Z,78.24
2019-05-11T08:14:09.885Z,77.81
2019-05-11T08:16:40.411Z,77.44
2019-05-11T08:19:11.066Z,77.20
2019-05-11T08:21:41.785Z,77.07
2019-05-11T08:24:12.611Z,76.96
2019-05-11T08:26:43.393Z,76.15
2019-05-11T08:29:13.827Z,76.05
2019-05-11T08:31:44.265Z,76.40
2019-05-11T08:34:15.085Z,76.21
2019-05-11T08:36:47.979Z,76.28
2019-05-11T08:39:18.570Z,76.58
2019-05-11T08:41:50.035Z,75.87
2019-05-11T08:44:20.465Z,75.62
2019-05-11T08:46:50.906Z,75.54
2019-05-11T08:49:22.132Z,75.60
2019-05-11T08:51:54.041Z,75.48
2019-05-11T08:54:24.481Z,75.11
2019-05-11T08:56:55.261Z,75.42
2019-05-11T08:59:27.876Z,75.72
2019-05-11T09:01:58.935Z,74.72
2019-05-11T09:04:29.585Z,74.55
2019-05-11T09:07:00.020Z,75.14
2019-05-11T09:09:30.450Z,75.45
2019-05-11T09:12:00.950Z,75.04
2019-05-11T09:14:31.425Z,75.41
2019-05-11T09:17:02.247Z,74.66
2019-05-11T09:19:32.737Z,75.50
2019-05-11T09:22:03.419Z,74.84
2019-05-11T09:24:33.883Z,74.48
2019-05-11T09:27:05.041Z,74.64
2019-05-11T09:29:35.470Z,75.06
2019-05-11T09:32:05.898Z,74.01
2019-05-11T09:34:37.788Z,74.91
2019-05-11T09:37:08.494Z,74.68
2019-05-11T09:39:39.277Z,73.22
2019-05-11T09:42:10.141Z,73.06
2019-05-11T09:44:40.570Z,73.81
2019-05-11T09:47:11.007Z,72.47
2019-05-11T09:49:47.562Z,72.92
2019-05-11T09:52:14.091Z,72.79
2019-05-11T09:54:44.836Z,71.52
2019-05-11T09:57:15.679Z,71.90
2019-05-11T09:59:47.800Z,70.71
2019-05-11T10:02:20.933Z,70.77
2019-05-11T10:04:50.948Z,71.39
2019-05-11T10:07:21.821Z,70.42
2019-05-11T10:09:52.249Z,70.32
2019-05-11T10:12:23.055Z,70.14
2019-05-11T10:14:55.510Z,70.58
2019-05-11T10:17:25.978Z,70.99
2019-05-11T10:19:58.280Z,71.90
2019-05-11T10:22:29.413Z,72.84
2019-05-11T10:25:00.476Z,73.83
2019-05-11T10:27:31.555Z,75.22
2019-05-11T10:30:02.337Z,76.09
2019-05-11T10:32:32.770Z,76.27
2019-05-11T10:35:03.886Z,76.35
2019-05-11T10:37:34.319Z,76.99
2019-05-11T10:40:05.151Z,76.99
2019-05-11T10:42:37.918Z,77.39
2019-05-11T10:45:09.192Z,77.25
2019-05-11T10:47:39.896Z,76.67
2019-05-11T10:50:10.841Z,76.61
2019-05-11T10:52:41.285Z,78.34
2019-05-11T10:55:12.013Z,78.46
2019-05-11T10:57:42.504Z,79.15
2019-05-11T11:00:13.538Z,79.53
2019-05-11T11:02:44.654Z,81.50
2019-05-11T11:05:15.462Z,81.30
2019-05-11T11:07:48.427Z,80.43
2019-05-11T11:10:18.619Z,78.50
2019-05-11T11:12:49.403Z,80.30
2019-05-11T11:15:20.435Z,80.06
2019-05-11T11:17:50.926Z,79.90
2019-05-11T11:20:21.367Z,80.24
2019-05-11T11:22:53.141Z,80.59
2019-05-11T11:25:24.019Z,80.58
2019-05-11T11:27:54.453Z,81.38
2019-05-11T11:30:25.249Z,81.00
2019-05-11T11:32:55.837Z,81.10
2019-05-11T11:35:27.908Z,81.92
2019-05-11T11:37:59.340Z,80.79
2019-05-11T11:40:30.206Z,82.19
2019-05-11T11:43:00.940Z,82.71
2019-05-11T11:45:31.372Z,82.92
2019-05-11T11:48:01.866Z,82.73
2019-05-11T11:50:32.712Z,83.31
2019-05-11T11:53:03.151Z,83.64
2019-05-11T11:55:34.698Z,83.37
2019-05-11T11:58:05.142Z,83.28
2019-05-11T12:00:36.025Z,83.96
2019-05-11T12:03:07.985Z,84.04
2019-05-11T12:05:39.290Z,83.77
2019-05-11T12:08:09.748Z,83.50
2019-05-11T12:10:40.242Z,83.86
2019-05-11T12:13:10.858Z,84.44
2019-05-11T12:15:41.689Z,84.13
2019-05-11T12:18:12.171Z,84.91
2019-05-11T12:20:43.016Z,84.79
2019-05-11T12:23:13.756Z,84.74
2019-05-11T12:25:45.517Z,84.42
2019-05-11T12:28:18.389Z,84.87
2019-05-11T12:30:49.097Z,85.43
2019-05-11T12:33:19.581Z,85.49
2019-05-11T12:35:50.387Z,84.56
2019-05-11T12:38:21.103Z,85.21
2019-05-11T12:40:52.288Z,85.02
2019-05-11T12:43:22.742Z,85.48
2019-05-11T12:45:53.451Z,85.37
2019-05-11T12:48:23.947Z,85.08
2019-05-11T12:50:56.169Z,86.12
2019-05-11T12:53:27.949Z,85.38
2019-05-11T12:55:59.026Z,85.52
2019-05-11T12:58:29.499Z,86.14
2019-05-11T13:00:59.925Z,86.20
2019-05-11T13:03:30.777Z,85.97
2019-05-11T13:06:01.241Z,85.29
2019-05-11T13:08:31.677Z,85.43
2019-05-11T13:11:02.444Z,85.32
2019-05-11T13:13:32.881Z,84.61
2019-05-11T13:16:03.321Z,85.57
2019-05-11T13:18:34.162Z,85.00
2019-05-11T13:21:04.604Z,85.48
2019-05-11T13:23:35.515Z,85.91
2019-05-11T13:26:08.557Z,84.42
2019-05-11T13:28:38.587Z,84.62
2019-05-11T13:31:09.036Z,86.39
2019-05-11T13:33:39.925Z,85.77
2019-05-11T13:36:10.363Z,86.11
2019-05-11T13:38:41.158Z,85.94
2019-05-11T13:41:12.018Z,86.18
2019-05-11T13:43:42.750Z,86.66
2019-05-11T13:46:13.494Z,85.83
2019-05-11T13:48:44.743Z,85.72
2019-05-11T13:51:15.174Z,85.98
2019-05-11T13:53:48.266Z,85.44
2019-05-11T13:56:18.683Z,85.88
2019-05-11T13:58:49.273Z,85.19
2019-05-11T14:01:19.725Z,84.84
2019-05-11T14:03:50.318Z,85.36
2019-05-11T14:06:20.769Z,84.92
2019-05-11T14:08:51.959Z,85.27
2019-05-11T14:11:22.680Z,84.66
2019-05-11T14:13:53.160Z,85.64
2019-05-11T14:16:23.630Z,84.93
2019-05-11T14:18:54.485Z,84.84
2019-05-11T14:21:24.932Z,85.35
2019-05-11T14:23:55.546Z,85.28
2019-05-11T14:26:28.052Z,84.77
2019-05-11T14:28:58.465Z,85.34
2019-05-11T14:31:29.108Z,85.58
2019-05-11T14:33:59.687Z,85.99
2019-05-11T14:36:30.802Z,86.14
2019-05-11T14:39:01.608Z,85.88
2019-05-11T14:41:32.128Z,86.18
2019-05-11T14:44:02.894Z,85.64
2019-05-11T14:46:33.773Z,85.46
2019-05-11T14:49:04.263Z,84.79
2019-05-11T14:51:34.737Z,83.45
2019-05-11T14:54:07.874Z,83.85
2019-05-11T14:56:38.153Z,83.95
2019-05-11T14:59:09.202Z,83.49
2019-05-11T15:01:40.044Z,83.85
2019-05-11T15:04:10.902Z,82.77
2019-05-11T15:06:42.084Z,83.02
2019-05-11T15:09:12.530Z,83.08
2019-05-11T15:11:43.044Z,83.38
2019-05-11T15:14:13.480Z,83.11
2019-05-11T15:16:43.907Z,83.22
2019-05-11T15:19:14.423Z,83.15
2019-05-11T15:21:45.029Z,82.83
2019-05-11T15:24:15.463Z,82.80
2019-05-11T15:26:49.220Z,81.98
2019-05-11T15:29:19.654Z,81.78
2019-05-11T15:31:50.109Z,82.47
2019-05-11T15:34:20.676Z,81.96
2019-05-11T15:36:51.292Z,81.71
2019-05-11T15:39:22.084Z,81.98
2019-05-11T15:42:06.473Z,82.73
2019-05-11T15:44:25.594Z,83.12
2019-05-11T15:46:58.286Z,83.13
2019-05-11T15:49:29.008Z,82.96
2019-05-11T15:51:59.848Z,83.44
2019-05-11T15:54:30.355Z,83.28
2019-05-11T15:57:00.801Z,83.03
2019-05-11T15:59:31.252Z,82.54
2019-05-11T16:02:01.734Z,82.65
2019-05-11T16:04:32.174Z,82.48
2019-05-11T16:07:03.041Z,82.21
2019-05-11T16:09:33.533Z,82.59
2019-05-11T16:12:04.397Z,81.45
2019-05-11T16:14:34.825Z,81.93
2019-05-11T16:17:05.683Z,82.71
2019-05-11T16:19:40.941Z,82.66
2019-05-11T16:22:10.161Z,82.42
2019-05-11T16:24:40.889Z,82.04
2019-05-11T16:27:11.887Z,82.20
2019-05-11T16:29:42.750Z,81.27
2019-05-11T16:32:14.473Z,80.87
2019-05-11T16:34:44.896Z,79.50
2019-05-11T16:37:18.236Z,79.62
2019-05-11T16:39:49.515Z,80.72
2019-05-11T16:42:20.016Z,81.20
2019-05-11T16:44:50.888Z,80.78
2019-05-11T16:47:21.336Z,80.43
2019-05-11T16:49:52.063Z,80.66
2019-05-11T16:52:23.012Z,80.75
2019-05-11T16:54:53.733Z,81.13
2019-05-11T16:57:24.175Z,81.53
2019-05-11T16:59:54.671Z,80.98
2019-05-11T17:02:27.373Z,81.20
2019-05-11T17:04:58.791Z,80.95
2019-05-11T17:07:29.995Z,81.16
2019-05-11T17:10:00.615Z,81.14
2019-05-11T17:12:31.553Z,80.81
2019-05-11T17:15:02.798Z,80.82
2019-05-11T17:17:33.239Z,81.05
2019-05-11T17:20:04.030Z,80.88
2019-05-11T17:22:35.682Z,80.55
2019-05-11T17:25:08.549Z,81.39
2019-05-11T17:27:39.373Z,81.59
2019-05-11T17:30:10.019Z,80.52
2019-05-11T17:32:40.454Z,81.01
2019-05-11T17:35:11.622Z,81.71
2019-05-11T17:37:42.057Z,82.63
2019-05-11T17:40:12.512Z,83.10
2019-05-11T17:42:43.358Z,81.89
2019-05-11T17:45:13.945Z,82.82
2019-05-11T17:47:44.793Z,82.91
2019-05-11T17:50:16.143Z,82.61
2019-05-11T17:52:47.978Z,82.96
2019-05-11T17:55:18.843Z,81.00
2019-05-11T17:57:53.418Z,81.29
2019-05-11T18:00:22.815Z,80.97
2019-05-11T18:02:53.614Z,81.01
2019-05-11T18:05:24.110Z,82.15
2019-05-11T18:07:54.598Z,81.47
2019-05-11T18:10:25.054Z,81.61
2019-05-11T18:12:57.695Z,82.44
2019-05-11T18:15:27.784Z,81.52
2019-05-11T18:17:59.108Z,82.29
2019-05-11T18:20:31.275Z,82.87
2019-05-11T18:23:02.164Z,82.21
2019-05-11T18:25:34.324Z,81.52
2019-05-11T18:28:06.279Z,81.79
2019-05-11T18:30:38.754Z,81.76
2019-05-11T18:33:09.222Z,82.71
2019-05-11T18:35:39.833Z,82.86
2019-05-11T18:38:10.471Z,82.83
2019-05-11T18:40:41.878Z,83.71
2019-05-11T18:43:12.384Z,83.11
2019-05-11T18:45:48.868Z,82.88
2019-05-11T18:48:19.940Z,84.17
2019-05-11T18:50:50.395Z,83.92
2019-05-11T18:53:21.244Z,83.90
2019-05-11T18:55:52.204Z,83.90
2019-05-11T18:58:22.672Z,84.07
2019-05-11T19:00:53.502Z,83.78
2019-05-11T19:03:24.423Z,84.24
2019-05-11T19:05:57.582Z,84.46
2019-05-11T19:08:27.998Z,84.91
2019-05-11T19:11:00.084Z,84.42
2019-05-11T19:13:30.831Z,84.54
2019-05-11T19:16:01.590Z,84.05
2019-05-11T19:18:32.282Z,84.33
2019-05-11T19:21:03.029Z,84.43
2019-05-11T19:23:33.510Z,84.44
2019-05-11T19:26:04.918Z,84.42
2019-05-11T19:28:35.895Z,84.25
2019-05-11T19:31:08.369Z,83.87
2019-05-11T19:33:38.921Z,83.99
2019-05-11T19:36:09.670Z,83.64
2019-05-11T19:38:40.405Z,83.35
2019-05-11T19:41:12.088Z,83.69
2019-05-11T19:43:42.918Z,84.55
2019-05-11T19:46:13.694Z,84.00
2019-05-11T19:48:44.926Z,83.88
2019-05-11T19:51:15.375Z,83.70
2019-05-11T19:53:45.839Z,84.22
2019-05-11T19:56:18.273Z,84.04
2019-05-11T19:58:49.043Z,84.57
2019-05-11T20:01:19.513Z,85.01
2019-05-11T20:03:52.565Z,85.50
2019-05-11T20:06:28.093Z,85.12
2019-05-11T20:08:59.160Z,85.65
2019-05-11T20:11:30.034Z,86.10
2019-05-11T20:14:00.829Z,85.65
2019-05-11T20:16:31.308Z,84.51
2019-05-11T20:19:01.759Z,79.65
2019-05-11T20:21:32.688Z,79.51
2019-05-11T20:24:03.835Z,77.75
2019-05-11T20:26:34.572Z,78.64
2019-05-11T20:29:05.040Z,79.22
2019-05-11T20:31:36.307Z,79.34
2019-05-11T20:34:06.755Z,78.86
2019-05-11T20:36:37.478Z,78.96
2019-05-11T20:39:08.454Z,79.50
2019-05-11T20:41:41.081Z,79.43
2019-05-11T20:44:11.528Z,79.37
2019-05-11T20:46:43.229Z,79.08
2019-05-11T20:49:15.132Z,78.44
2019-05-11T20:51:48.396Z,79.03
2019-05-11T20:54:19.089Z,78.41
2019-05-11T20:56:50.880Z,78.17
2019-05-11T20:59:21.800Z,78.90
2019-05-11T21:01:52.274Z,78.59
2019-05-11T21:04:22.684Z,79.12
2019-05-11T21:06:53.500Z,79.51
2019-05-11T21:09:23.939Z,79.31
2019-05-11T21:11:54.385Z,78.90
2019-05-11T21:14:25.220Z,79.15
2019-05-11T21:16:58.310Z,79.34
2019-05-11T21:19:28.462Z,78.61
2019-05-11T21:21:59.201Z,79.12
2019-05-11T21:24:29.616Z,78.79
2019-05-11T21:27:00.045Z,79.21
2019-05-11T21:29:31.472Z,79.18
2019-05-11T21:32:02.191Z,79.73
2019-05-11T21:34:33.238Z,79.76
2019-05-11T21:37:03.723Z,79.88
2019-05-11T21:39:34.537Z,79.80
2019-05-11T21:42:04.992Z,80.36
2019-05-11T21:44:35.495Z,80.24
2019-05-11T21:47:07.724Z,80.30
2019-05-11T21:49:38.244Z,80.15
2019-05-11T21:52:08.817Z,80.14
2019-05-11T21:54:39.256Z,80.19
2019-05-11T21:57:09.693Z,80.85
2019-05-11T21:59:40.223Z,80.18
2019-05-11T22:02:11.027Z,80.33
2019-05-11T22:04:41.778Z,80.66
2019-05-11T22:07:14.240Z,80.31
2019-05-11T22:09:44.674Z,80.39
2019-05-11T22:12:18.586Z,80.82
2019-05-11T22:14:48.902Z,80.92
2019-05-11T22:17:19.519Z,81.02
2019-05-11T22:19:49.949Z,81.25
2019-05-11T22:22:25.092Z,80.71
2019-05-11T22:24:52.957Z,81.37
2019-05-11T22:27:24.102Z,81.46
2019-05-11T22:29:54.896Z,81.04
2019-05-11T22:32:25.781Z,80.55
2019-05-11T22:34:58.239Z,80.00
2019-05-11T22:37:28.852Z,80.71
2019-05-11T22:39:59.277Z,80.20
2019-05-11T22:42:29.709Z,80.36
2019-05-11T22:45:00.343Z,80.85
2019-05-11T22:47:30.838Z,81.00
2019-05-11T22:50:01.916Z,81.33
2019-05-11T22:52:36.568Z,81.45
2019-05-11T22:55:05.389Z,81.87
2019-05-11T22:57:37.910Z,81.92
2019-05-11T23:00:09.737Z,82.11
2019-05-11T23:02:40.221Z,82.26
2019-05-11T23:05:11.147Z,82.39
2019-05-11T23:07:41.920Z,82.06
2019-05-11T23:10:12.759Z,82.33
2019-05-11T23:12:43.192Z,82.45
2019-05-11T23:15:14.096Z,82.57
2019-05-11T23:17:44.973Z,82.46
2019-05-11T23:20:15.913Z,82.47
2019-05-11T23:22:58.118Z,82.40
2019-05-11T23:25:21.374Z,82.59
2019-05-11T23:27:52.186Z,81.91
2019-05-11T23:30:22.758Z,82.49
2019-05-11T23:32:53.956Z,82.17
2019-05-11T23:35:24.701Z,82.40
2019-05-11T23:37:57.992Z,82.57
2019-05-11T23:40:28.525Z,82.66
2019-05-11T23:42:59.078Z,82.64
2019-05-11T23:45:29.562Z,82.28
2019-05-11T23:48:00.458Z,82.60
2019-05-11T23:50:31.677Z,82.90
2019-05-11T23:53:06.458Z,83.06
2019-05-11T23:55:34.686Z,82.84
2019-05-11T23:58:05.456Z,82.57
